Grand Terrace, CA (92313)

1:16 AM PST on February 14, 2016 (GMT -0800)
Barton Rd. and Waterman Ave. (L&L Environmental, Inc.) | | Change Station
CLOSE
Current Station
Personal Weather Station
Location: Loma Linda, CA
Elevation: 1037 ft
Nearby Weather Stations

Elev 1037 ft 34.05 °N, 117.28 °W | Updated 8 minutes ago

Clear
Clear
48.2 °F
Feels Like 48 °F
N
1.7
Wind Variable Wind from SE

Today
High -- | Low -- °F
--% Chance of Precip.
Yesterday
High -- | Low -- °F
Precip. -- in
Pressure 30.03 in
Visibility 8.0 miles
Clouds Clear
Windchill 48 °F
Dew Point 36 °F
Humidity 63%
Rainfall 0.00 in
Snow Depth Not available.
6:35 AM 5:31 PM
Waxing Crescent, 39% visible
METAR KRAL 140853Z AUTO 00000KT 8SM CLR 12/05 A3007 RMK AO2 SLP168 T01220050 50001
Pressure 30.03 in
Visibility 8.0 miles
Clouds Clear
Windchill 48 °F
Dew Point 36 °F
Humidity 63%
Rainfall 0.00 in
Snow Depth Not available.
6:35 AM 5:31 PM
Waxing Crescent, 39% visible
METAR KRAL 140853Z AUTO 00000KT 8SM CLR 12/05 A3007 RMK AO2 SLP168 T01220050 50001

10-Day Weather Forecast

Almanac

Astronomy

Feb. 14, 2016 Rise Set
Actual Time
Civil Twilight
Nautical Twilight
Astronomical Twilight
Moon
Length of Visible Light
Length of Day
Tomorrow will be .
, % of the Moon is Illuminated

Today's Extremes

State Highs State Lows

Community

WunderPhotos

Upload Photos

1,892,763 photos uploaded!

WunderBlog® & News

Nearby

Air Quality

  Air Quality AQ Index Pollutant
Not available.

Snow Depth

Station Depth Elevation

Earthquake Activity

City Distance Mag. Time & Date
Minimum magnitude displayed is 2.5.

Coastal Water Temperatures

Place Temperature

Stations

Nearby Weather Stations

Station Location Temp. Windchill Dew Point Humidity Wind Precip. Elev Updated Type
                   

Watches & Warnings

There are currently no watches in effect.